sensor_id;sensor_type;location;lat;lon;timestamp;P1;durP1;ratioP1;P2;durP2;ratioP2
8458;SDS011;4266;48.816;9.154;2023-05-07T00:01:06;7.97;;;7.27;;
8458;SDS011;4266;48.816;9.154;2023-05-07T00:03:32;7.67;;;7.07;;
8458;SDS011;4266;48.816;9.154;2023-05-07T00:05:58;7.97;;;7.27;;
8458;SDS011;4266;48.816;9.154;2023-05-07T00:08:23;8.50;;;7.70;;
8458;SDS011;4266;48.816;9.154;2023-05-07T00:10:49;10.40;;;7.70;;
8458;SDS011;4266;48.816;9.154;2023-05-07T00:13:15;8.50;;;7.70;;
8458;SDS011;4266;48.816;9.154;2023-05-07T00:15:40;8.23;;;6.53;;
8458;SDS011;4266;48.816;9.154;2023-05-07T00:18:06;7.50;;;6.67;;
8458;SDS011;4266;48.816;9.154;2023-05-07T00:20:32;8.10;;;6.93;;
8458;SDS011;4266;48.816;9.154;2023-05-07T00:22:58;14.40;;;8.27;;
8458;SDS011;4266;48.816;9.154;2023-05-07T00:25:24;7.60;;;7.00;;
8458;SDS011;4266;48.816;9.154;2023-05-07T00:27:50;8.40;;;7.50;;
8458;SDS011;4266;48.816;9.154;2023-05-07T00:30:15;8.30;;;7.43;;
8458;SDS011;4266;48.816;9.154;2023-05-07T00:32:41;8.00;;;7.10;;
8458;SDS011;4266;48.816;9.154;2023-05-07T00:35:07;8.33;;;7.53;;
8458;SDS011;4266;48.816;9.154;2023-05-07T00:37:34;8.03;;;7.23;;
8458;SDS011;4266;48.816;9.154;2023-05-07T00:40:00;7.40;;;6.80;;
8458;SDS011;4266;48.816;9.154;2023-05-07T00:42:26;7.60;;;7.00;;
8458;SDS011;4266;48.816;9.154;2023-05-07T00:44:52;7.73;;;7.13;;
8458;SDS011;4266;48.816;9.154;2023-05-07T00:47:18;9.40;;;7.93;;
8458;SDS011;4266;48.816;9.154;2023-05-07T00:49:44;7.80;;;7.10;;
8458;SDS011;4266;48.816;9.154;2023-05-07T00:52:11;7.80;;;7.00;;
8458;SDS011;4266;48.816;9.154;2023-05-07T00:54:36;7.73;;;6.93;;
8458;SDS011;4266;48.816;9.154;2023-05-07T00:57:02;8.07;;;6.37;;
8458;SDS011;4266;48.816;9.154;2023-05-07T00:59:27;7.73;;;6.83;;
8458;SDS011;4266;48.816;9.154;2023-05-07T01:01:53;7.93;;;6.73;;
8458;SDS011;4266;48.816;9.154;2023-05-07T01:04:19;8.37;;;6.97;;
8458;SDS011;4266;48.816;9.154;2023-05-07T01:06:44;6.87;;;6.33;;
8458;SDS011;4266;48.816;9.154;2023-05-07T01:09:10;6.90;;;6.30;;
8458;SDS011;4266;48.816;9.154;2023-05-07T01:11:37;7.80;;;6.43;;
8458;SDS011;4266;48.816;9.154;2023-05-07T01:14:02;9.37;;;6.37;;
8458;SDS011;4266;48.816;9.154;2023-05-07T01:16:28;6.40;;;5.90;;
8458;SDS011;4266;48.816;9.154;2023-05-07T01:18:54;7.43;;;6.40;;
8458;SDS011;4266;48.816;9.154;2023-05-07T01:21:19;6.73;;;6.00;;
8458;SDS011;4266;48.816;9.154;2023-05-07T01:23:46;8.40;;;6.47;;
8458;SDS011;4266;48.816;9.154;2023-05-07T01:26:11;6.60;;;6.10;;
8458;SDS011;4266;48.816;9.154;2023-05-07T01:28:37;6.77;;;6.20;;
8458;SDS011;4266;48.816;9.154;2023-05-07T01:31:03;6.67;;;6.07;;
8458;SDS011;4266;48.816;9.154;2023-05-07T01:33:29;7.23;;;6.63;;
8458;SDS011;4266;48.816;9.154;2023-05-07T01:35:54;7.03;;;6.47;;
8458;SDS011;4266;48.816;9.154;2023-05-07T01:38:21;7.10;;;6.40;;
8458;SDS011;4266;48.816;9.154;2023-05-07T01:40:46;8.30;;;6.60;;
8458;SDS011;4266;48.816;9.154;2023-05-07T01:43:12;10.03;;;6.70;;
8458;SDS011;4266;48.816;9.154;2023-05-07T01:45:38;7.00;;;6.30;;
8458;SDS011;4266;48.816;9.154;2023-05-07T01:48:05;6.43;;;5.70;;
8458;SDS011;4266;48.816;9.154;2023-05-07T01:50:30;7.00;;;6.30;;
8458;SDS011;4266;48.816;9.154;2023-05-07T01:52:57;7.73;;;5.90;;
8458;SDS011;4266;48.816;9.154;2023-05-07T01:55:22;8.00;;;5.73;;
8458;SDS011;4266;48.816;9.154;2023-05-07T01:57:49;6.20;;;5.70;;
8458;SDS011;4266;48.816;9.154;2023-05-07T02:00:15;6.53;;;6.03;;
8458;SDS011;4266;48.816;9.154;2023-05-07T02:02:41;8.30;;;6.17;;
8458;SDS011;4266;48.816;9.154;2023-05-07T02:05:07;6.33;;;5.83;;
8458;SDS011;4266;48.816;9.154;2023-05-07T02:07:33;7.03;;;6.10;;
8458;SDS011;4266;48.816;9.154;2023-05-07T02:09:58;6.53;;;5.90;;
8458;SDS011;4266;48.816;9.154;2023-05-07T02:12:25;6.50;;;6.00;;
8458;SDS011;4266;48.816;9.154;2023-05-07T02:14:51;6.00;;;5.40;;
8458;SDS011;4266;48.816;9.154;2023-05-07T02:17:16;6.83;;;5.80;;
8458;SDS011;4266;48.816;9.154;2023-05-07T02:19:42;6.67;;;5.67;;
8458;SDS011;4266;48.816;9.154;2023-05-07T02:22:09;7.47;;;5.67;;
8458;SDS011;4266;48.816;9.154;2023-05-07T02:24:33;8.60;;;6.23;;
8458;SDS011;4266;48.816;9.154;2023-05-07T02:26:59;6.40;;;5.90;;
8458;SDS011;4266;48.816;9.154;2023-05-07T02:29:25;6.47;;;5.93;;
8458;SDS011;4266;48.816;9.154;2023-05-07T02:31:51;6.50;;;5.83;;
8458;SDS011;4266;48.816;9.154;2023-05-07T02:34:17;6.77;;;6.07;;
8458;SDS011;4266;48.816;9.154;2023-05-07T02:36:43;6.63;;;6.13;;
8458;SDS011;4266;48.816;9.154;2023-05-07T02:39:09;6.50;;;6.00;;
8458;SDS011;4266;48.816;9.154;2023-05-07T02:41:35;7.00;;;6.30;;
8458;SDS011;4266;48.816;9.154;2023-05-07T02:44:00;6.93;;;6.20;;
8458;SDS011;4266;48.816;9.154;2023-05-07T02:46:27;6.30;;;5.80;;
8458;SDS011;4266;48.816;9.154;2023-05-07T02:48:52;7.10;;;5.83;;
8458;SDS011;4266;48.816;9.154;2023-05-07T02:51:19;7.40;;;6.73;;
8458;SDS011;4266;48.816;9.154;2023-05-07T02:53:44;5.97;;;5.47;;
8458;SDS011;4266;48.816;9.154;2023-05-07T02:56:10;6.67;;;6.07;;
8458;SDS011;4266;48.816;9.154;2023-05-07T02:58:36;6.80;;;6.20;;
8458;SDS011;4266;48.816;9.154;2023-05-07T03:01:01;6.40;;;5.80;;
8458;SDS011;4266;48.816;9.154;2023-05-07T03:03:27;6.33;;;5.73;;
8458;SDS011;4266;48.816;9.154;2023-05-07T03:05:53;8.83;;;5.87;;
8458;SDS011;4266;48.816;9.154;2023-05-07T03:08:18;6.57;;;6.00;;
8458;SDS011;4266;48.816;9.154;2023-05-07T03:10:45;7.13;;;6.43;;
8458;SDS011;4266;48.816;9.154;2023-05-07T03:13:11;6.63;;;6.03;;
8458;SDS011;4266;48.816;9.154;2023-05-07T03:15:36;6.90;;;6.20;;
8458;SDS011;4266;48.816;9.154;2023-05-07T03:18:03;8.43;;;6.37;;
8458;SDS011;4266;48.816;9.154;2023-05-07T03:20:29;9.87;;;6.07;;
8458;SDS011;4266;48.816;9.154;2023-05-07T03:22:54;8.50;;;6.30;;
8458;SDS011;4266;48.816;9.154;2023-05-07T03:25:20;6.97;;;6.40;;
8458;SDS011;4266;48.816;9.154;2023-05-07T03:27:47;6.90;;;6.30;;
8458;SDS011;4266;48.816;9.154;2023-05-07T03:30:12;7.30;;;6.60;;
8458;SDS011;4266;48.816;9.154;2023-05-07T03:32:38;7.50;;;6.90;;
8458;SDS011;4266;48.816;9.154;2023-05-07T03:35:04;8.40;;;6.90;;
8458;SDS011;4266;48.816;9.154;2023-05-07T03:37:30;8.00;;;7.27;;
8458;SDS011;4266;48.816;9.154;2023-05-07T03:39:56;6.50;;;6.00;;
8458;SDS011;4266;48.816;9.154;2023-05-07T03:42:22;6.67;;;6.10;;
8458;SDS011;4266;48.816;9.154;2023-05-07T03:44:48;7.60;;;6.90;;
8458;SDS011;4266;48.816;9.154;2023-05-07T03:47:13;8.03;;;7.27;;
8458;SDS011;4266;48.816;9.154;2023-05-07T03:49:40;7.00;;;6.40;;
8458;SDS011;4266;48.816;9.154;2023-05-07T03:52:05;7.77;;;7.03;;
8458;SDS011;4266;48.816;9.154;2023-05-07T03:54:31;7.20;;;6.60;;
8458;SDS011;4266;48.816;9.154;2023-05-07T03:56:57;7.23;;;6.53;;
8458;SDS011;4266;48.816;9.154;2023-05-07T03:59:23;10.83;;;6.97;;
8458;SDS011;4266;48.816;9.154;2023-05-07T04:01:49;7.80;;;6.67;;
8458;SDS011;4266;48.816;9.154;2023-05-07T04:04:15;7.20;;;5.70;;
8458;SDS011;4266;48.816;9.154;2023-05-07T04:06:40;7.23;;;6.63;;
8458;SDS011;4266;48.816;9.154;2023-05-07T04:09:06;6.53;;;6.03;;
8458;SDS011;4266;48.816;9.154;2023-05-07T04:11:32;7.17;;;6.57;;
8458;SDS011;4266;48.816;9.154;2023-05-07T04:13:57;7.13;;;6.40;;
8458;SDS011;4266;48.816;9.154;2023-05-07T04:16:23;6.77;;;6.27;;
8458;SDS011;4266;48.816;9.154;2023-05-07T04:18:49;7.13;;;6.43;;
8458;SDS011;4266;48.816;9.154;2023-05-07T04:21:16;6.63;;;6.13;;
8458;SDS011;4266;48.816;9.154;2023-05-07T04:23:42;7.40;;;6.60;;
8458;SDS011;4266;48.816;9.154;2023-05-07T04:26:07;9.07;;;6.47;;
8458;SDS011;4266;48.816;9.154;2023-05-07T04:28:33;7.23;;;6.53;;
8458;SDS011;4266;48.816;9.154;2023-05-07T04:30:59;6.63;;;6.03;;
8458;SDS011;4266;48.816;9.154;2023-05-07T04:33:24;7.57;;;6.70;;
8458;SDS011;4266;48.816;9.154;2023-05-07T04:35:51;6.60;;;5.90;;
8458;SDS011;4266;48.816;9.154;2023-05-07T04:38:16;6.13;;;5.63;;
8458;SDS011;4266;48.816;9.154;2023-05-07T04:40:42;7.50;;;6.80;;
8458;SDS011;4266;48.816;9.154;2023-05-07T04:43:08;8.80;;;6.13;;
8458;SDS011;4266;48.816;9.154;2023-05-07T04:45:35;7.27;;;6.17;;
8458;SDS011;4266;48.816;9.154;2023-05-07T04:48:00;8.00;;;6.70;;
8458;SDS011;4266;48.816;9.154;2023-05-07T04:50:26;7.50;;;6.37;;
8458;SDS011;4266;48.816;9.154;2023-05-07T04:52:52;6.50;;;6.00;;
8458;SDS011;4266;48.816;9.154;2023-05-07T04:55:18;7.50;;;6.70;;
8458;SDS011;4266;48.816;9.154;2023-05-07T04:57:44;7.47;;;6.80;;
8458;SDS011;4266;48.816;9.154;2023-05-07T05:00:10;7.93;;;7.20;;
8458;SDS011;4266;48.816;9.154;2023-05-07T05:02:36;7.30;;;6.70;;
8458;SDS011;4266;48.816;9.154;2023-05-07T05:05:02;9.70;;;6.27;;
8458;SDS011;4266;48.816;9.154;2023-05-07T05:07:27;7.60;;;6.63;;
8458;SDS011;4266;48.816;9.154;2023-05-07T05:09:53;7.67;;;6.20;;
8458;SDS011;4266;48.816;9.154;2023-05-07T05:12:19;8.00;;;6.83;;
8458;SDS011;4266;48.816;9.154;2023-05-07T05:14:44;7.10;;;6.53;;
8458;SDS011;4266;48.816;9.154;2023-05-07T05:17:11;7.27;;;6.60;;
8458;SDS011;4266;48.816;9.154;2023-05-07T05:19:36;7.03;;;6.53;;
8458;SDS011;4266;48.816;9.154;2023-05-07T05:22:02;6.63;;;6.10;;
8458;SDS011;4266;48.816;9.154;2023-05-07T05:24:28;6.57;;;6.00;;
8458;SDS011;4266;48.816;9.154;2023-05-07T05:26:54;7.00;;;6.37;;
8458;SDS011;4266;48.816;9.154;2023-05-07T05:29:20;6.90;;;6.30;;
8458;SDS011;4266;48.816;9.154;2023-05-07T05:31:46;7.93;;;5.97;;
8458;SDS011;4266;48.816;9.154;2023-05-07T05:34:12;6.70;;;6.10;;
8458;SDS011;4266;48.816;9.154;2023-05-07T05:36:38;7.10;;;6.47;;
8458;SDS011;4266;48.816;9.154;2023-05-07T05:39:03;7.73;;;6.60;;
8458;SDS011;4266;48.816;9.154;2023-05-07T05:41:30;7.33;;;6.60;;
8458;SDS011;4266;48.816;9.154;2023-05-07T05:43:55;6.63;;;6.00;;
8458;SDS011;4266;48.816;9.154;2023-05-07T05:46:21;6.70;;;6.10;;
8458;SDS011;4266;48.816;9.154;2023-05-07T05:48:47;10.43;;;6.20;;
8458;SDS011;4266;48.816;9.154;2023-05-07T05:51:12;6.30;;;5.70;;
8458;SDS011;4266;48.816;9.154;2023-05-07T05:53:38;7.17;;;5.27;;
8458;SDS011;4266;48.816;9.154;2023-05-07T05:56:04;6.37;;;5.77;;
8458;SDS011;4266;48.816;9.154;2023-05-07T05:58:30;6.30;;;5.80;;
8458;SDS011;4266;48.816;9.154;2023-05-07T06:00:56;6.33;;;5.73;;
8458;SDS011;4266;48.816;9.154;2023-05-07T06:03:22;6.17;;;5.70;;
8458;SDS011;4266;48.816;9.154;2023-05-07T06:05:48;6.60;;;6.00;;
8458;SDS011;4266;48.816;9.154;2023-05-07T06:08:13;6.90;;;6.40;;
8458;SDS011;4266;48.816;9.154;2023-05-07T06:10:39;6.83;;;6.33;;
8458;SDS011;4266;48.816;9.154;2023-05-07T06:13:05;6.87;;;6.23;;
8458;SDS011;4266;48.816;9.154;2023-05-07T06:15:31;6.53;;;5.93;;
8458;SDS011;4266;48.816;9.154;2023-05-07T06:17:57;6.37;;;5.87;;
8458;SDS011;4266;48.816;9.154;2023-05-07T06:20:23;7.13;;;5.87;;
8458;SDS011;4266;48.816;9.154;2023-05-07T06:22:49;6.12;;;5.60;;
8458;SDS011;4266;48.816;9.154;2023-05-07T06:25:15;6.40;;;5.80;;
8458;SDS011;4266;48.816;9.154;2023-05-07T06:27:41;6.28;;;5.78;;
8458;SDS011;4266;48.816;9.154;2023-05-07T06:30:07;5.90;;;5.47;;
8458;SDS011;4266;48.816;9.154;2023-05-07T06:32:33;6.35;;;5.75;;
8458;SDS011;4266;48.816;9.154;2023-05-07T06:34:59;6.30;;;5.80;;
8458;SDS011;4266;48.816;9.154;2023-05-07T06:37:25;5.45;;;5.05;;
8458;SDS011;4266;48.816;9.154;2023-05-07T06:39:50;6.53;;;5.87;;
8458;SDS011;4266;48.816;9.154;2023-05-07T06:42:16;6.30;;;5.70;;
8458;SDS011;4266;48.816;9.154;2023-05-07T06:44:41;5.87;;;5.37;;
8458;SDS011;4266;48.816;9.154;2023-05-07T06:47:08;9.45;;;5.30;;
8458;SDS011;4266;48.816;9.154;2023-05-07T06:49:33;6.03;;;5.35;;
8458;SDS011;4266;48.816;9.154;2023-05-07T06:51:59;5.93;;;4.87;;
8458;SDS011;4266;48.816;9.154;2023-05-07T06:54:25;5.80;;;5.30;;
8458;SDS011;4266;48.816;9.154;2023-05-07T06:56:51;6.40;;;5.30;;
8458;SDS011;4266;48.816;9.154;2023-05-07T06:59:17;9.80;;;4.82;;
8458;SDS011;4266;48.816;9.154;2023-05-07T07:01:42;5.45;;;4.85;;
8458;SDS011;4266;48.816;9.154;2023-05-07T07:04:08;6.32;;;5.05;;
8458;SDS011;4266;48.816;9.154;2023-05-07T07:06:34;5.68;;;5.22;;
8458;SDS011;4266;48.816;9.154;2023-05-07T07:08:59;7.22;;;5.37;;
8458;SDS011;4266;48.816;9.154;2023-05-07T07:11:25;5.87;;;4.85;;
8458;SDS011;4266;48.816;9.154;2023-05-07T07:13:51;4.93;;;4.43;;
8458;SDS011;4266;48.816;9.154;2023-05-07T07:16:16;4.70;;;4.30;;
8458;SDS011;4266;48.816;9.154;2023-05-07T07:18:43;5.57;;;4.55;;
8458;SDS011;4266;48.816;9.154;2023-05-07T07:21:09;5.15;;;4.30;;
8458;SDS011;4266;48.816;9.154;2023-05-07T07:23:34;7.53;;;4.40;;
8458;SDS011;4266;48.816;9.154;2023-05-07T07:26:02;7.25;;;4.20;;
8458;SDS011;4266;48.816;9.154;2023-05-07T07:28:27;4.40;;;4.00;;
8458;SDS011;4266;48.816;9.154;2023-05-07T07:30:53;4.22;;;3.92;;
8458;SDS011;4266;48.816;9.154;2023-05-07T07:33:19;7.18;;;4.15;;
8458;SDS011;4266;48.816;9.154;2023-05-07T07:35:45;5.78;;;4.00;;
8458;SDS011;4266;48.816;9.154;2023-05-07T07:38:11;6.45;;;3.50;;
8458;SDS011;4266;48.816;9.154;2023-05-07T07:40:36;5.32;;;4.10;;
8458;SDS011;4266;48.816;9.154;2023-05-07T07:43:02;4.90;;;4.45;;
8458;SDS011;4266;48.816;9.154;2023-05-07T07:45:28;4.78;;;4.30;;
8458;SDS011;4266;48.816;9.154;2023-05-07T07:47:53;5.47;;;4.25;;
8458;SDS011;4266;48.816;9.154;2023-05-07T07:50:19;4.95;;;4.55;;
8458;SDS011;4266;48.816;9.154;2023-05-07T07:52:45;5.00;;;4.50;;
8458;SDS011;4266;48.816;9.154;2023-05-07T07:55:11;5.50;;;4.47;;
8458;SDS011;4266;48.816;9.154;2023-05-07T07:57:36;4.20;;;3.90;;
8458;SDS011;4266;48.816;9.154;2023-05-07T08:00:02;5.03;;;4.22;;
8458;SDS011;4266;48.816;9.154;2023-05-07T08:02:30;5.62;;;4.32;;
8458;SDS011;4266;48.816;9.154;2023-05-07T08:04:55;5.55;;;5.05;;
8458;SDS011;4266;48.816;9.154;2023-05-07T08:07:21;4.87;;;4.40;;
8458;SDS011;4266;48.816;9.154;2023-05-07T08:09:47;4.78;;;4.37;;
8458;SDS011;4266;48.816;9.154;2023-05-07T08:12:13;5.53;;;5.00;;
8458;SDS011;4266;48.816;9.154;2023-05-07T08:14:40;6.07;;;4.80;;
8458;SDS011;4266;48.816;9.154;2023-05-07T08:17:05;6.65;;;4.45;;
8458;SDS011;4266;48.816;9.154;2023-05-07T08:19:31;5.22;;;4.82;;
8458;SDS011;4266;48.816;9.154;2023-05-07T08:21:57;7.15;;;4.78;;
8458;SDS011;4266;48.816;9.154;2023-05-07T08:24:23;5.62;;;4.55;;
8458;SDS011;4266;48.816;9.154;2023-05-07T08:26:49;5.82;;;4.93;;
8458;SDS011;4266;48.816;9.154;2023-05-07T08:29:15;5.75;;;4.65;;
8458;SDS011;4266;48.816;9.154;2023-05-07T08:31:41;5.07;;;4.10;;
8458;SDS011;4266;48.816;9.154;2023-05-07T08:34:07;5.45;;;4.07;;
8458;SDS011;4266;48.816;9.154;2023-05-07T08:36:32;5.50;;;3.90;;
8458;SDS011;4266;48.816;9.154;2023-05-07T08:38:59;4.72;;;3.72;;
8458;SDS011;4266;48.816;9.154;2023-05-07T08:41:24;4.50;;;4.10;;
8458;SDS011;4266;48.816;9.154;2023-05-07T08:43:50;3.85;;;3.53;;
8458;SDS011;4266;48.816;9.154;2023-05-07T08:46:17;3.83;;;3.53;;
8458;SDS011;4266;48.816;9.154;2023-05-07T08:48:42;5.15;;;3.40;;
8458;SDS011;4266;48.816;9.154;2023-05-07T08:51:08;4.12;;;3.22;;
8458;SDS011;4266;48.816;9.154;2023-05-07T08:53:33;7.15;;;4.15;;
8458;SDS011;4266;48.816;9.154;2023-05-07T08:55:59;4.07;;;3.67;;
8458;SDS011;4266;48.816;9.154;2023-05-07T08:58:25;3.17;;;2.97;;
8458;SDS011;4266;48.816;9.154;2023-05-07T09:00:51;6.05;;;3.30;;
8458;SDS011;4266;48.816;9.154;2023-05-07T09:03:16;3.97;;;3.10;;
8458;SDS011;4266;48.816;9.154;2023-05-07T09:05:42;8.98;;;3.22;;
8458;SDS011;4266;48.816;9.154;2023-05-07T09:08:08;3.85;;;2.65;;
8458;SDS011;4266;48.816;9.154;2023-05-07T09:10:34;3.65;;;2.75;;
8458;SDS011;4266;48.816;9.154;2023-05-07T09:12:59;3.53;;;2.75;;
8458;SDS011;4266;48.816;9.154;2023-05-07T09:15:26;6.15;;;2.60;;
8458;SDS011;4266;48.816;9.154;2023-05-07T09:17:51;6.90;;;2.67;;
8458;SDS011;4266;48.816;9.154;2023-05-07T09:20:16;2.70;;;2.50;;
8458;SDS011;4266;48.816;9.154;2023-05-07T09:22:42;3.33;;;2.78;;
8458;SDS011;4266;48.816;9.154;2023-05-07T09:25:08;3.55;;;2.58;;
8458;SDS011;4266;48.816;9.154;2023-05-07T09:27:34;2.58;;;2.37;;
8458;SDS011;4266;48.816;9.154;2023-05-07T09:30:02;2.58;;;2.40;;
8458;SDS011;4266;48.816;9.154;2023-05-07T09:32:25;8.52;;;2.83;;
8458;SDS011;4266;48.816;9.154;2023-05-07T09:34:52;2.85;;;2.58;;
8458;SDS011;4266;48.816;9.154;2023-05-07T09:37:19;2.97;;;2.70;;
8458;SDS011;4266;48.816;9.154;2023-05-07T09:39:46;3.08;;;2.50;;
8458;SDS011;4266;48.816;9.154;2023-05-07T09:42:12;2.87;;;2.67;;
8458;SDS011;4266;48.816;9.154;2023-05-07T09:44:38;4.15;;;2.70;;
8458;SDS011;4266;48.816;9.154;2023-05-07T09:47:05;3.40;;;2.97;;
8458;SDS011;4266;48.816;9.154;2023-05-07T09:49:30;3.87;;;2.60;;
8458;SDS011;4266;48.816;9.154;2023-05-07T09:51:56;2.65;;;2.45;;
8458;SDS011;4266;48.816;9.154;2023-05-07T09:54:22;3.87;;;2.67;;
8458;SDS011;4266;48.816;9.154;2023-05-07T09:56:48;2.65;;;2.45;;
8458;SDS011;4266;48.816;9.154;2023-05-07T09:59:15;3.47;;;2.60;;
8458;SDS011;4266;48.816;9.154;2023-05-07T10:01:40;3.72;;;2.50;;
8458;SDS011;4266;48.816;9.154;2023-05-07T10:04:06;3.75;;;2.67;;
8458;SDS011;4266;48.816;9.154;2023-05-07T10:06:31;3.05;;;2.45;;
8458;SDS011;4266;48.816;9.154;2023-05-07T10:08:57;2.40;;;2.20;;
8458;SDS011;4266;48.816;9.154;2023-05-07T10:11:23;6.12;;;2.53;;
8458;SDS011;4266;48.816;9.154;2023-05-07T10:13:49;2.65;;;2.45;;
8458;SDS011;4266;48.816;9.154;2023-05-07T10:16:15;2.50;;;2.30;;
8458;SDS011;4266;48.816;9.154;2023-05-07T10:18:41;2.95;;;2.60;;
8458;SDS011;4266;48.816;9.154;2023-05-07T10:21:08;2.53;;;2.28;;
8458;SDS011;4266;48.816;9.154;2023-05-07T10:23:34;2.62;;;2.37;;
8458;SDS011;4266;48.816;9.154;2023-05-07T10:26:02;5.65;;;2.20;;
8458;SDS011;4266;48.816;9.154;2023-05-07T10:28:26;2.42;;;2.22;;
8458;SDS011;4266;48.816;9.154;2023-05-07T10:30:56;7.35;;;2.47;;
8458;SDS011;4266;48.816;9.154;2023-05-07T10:33:18;2.40;;;2.20;;
8458;SDS011;4266;48.816;9.154;2023-05-07T10:35:44;2.60;;;2.40;;
8458;SDS011;4266;48.816;9.154;2023-05-07T10:38:09;4.45;;;2.10;;
8458;SDS011;4266;48.816;9.154;2023-05-07T10:40:39;2.47;;;2.28;;
8458;SDS011;4266;48.816;9.154;2023-05-07T10:43:04;3.17;;;2.30;;
8458;SDS011;4266;48.816;9.154;2023-05-07T10:45:30;3.42;;;2.33;;
8458;SDS011;4266;48.816;9.154;2023-05-07T10:50:34;2.78;;;2.50;;
8458;SDS011;4266;48.816;9.154;2023-05-07T10:55:38;2.80;;;2.60;;
8458;SDS011;4266;48.816;9.154;2023-05-07T10:58:22;3.05;;;2.55;;
8458;SDS011;4266;48.816;9.154;2023-05-07T11:00:41;3.80;;;2.78;;
8458;SDS011;4266;48.816;9.154;2023-05-07T11:03:06;2.80;;;2.60;;
8458;SDS011;4266;48.816;9.154;2023-05-07T11:05:32;2.53;;;2.30;;
8458;SDS011;4266;48.816;9.154;2023-05-07T11:07:58;3.35;;;2.50;;
8458;SDS011;4266;48.816;9.154;2023-05-07T11:10:46;2.35;;;2.20;;
8458;SDS011;4266;48.816;9.154;2023-05-07T11:12:49;5.50;;;2.50;;
8458;SDS011;4266;48.816;9.154;2023-05-07T11:15:15;2.53;;;2.33;;
8458;SDS011;4266;48.816;9.154;2023-05-07T11:20:18;6.85;;;2.22;;
8458;SDS011;4266;48.816;9.154;2023-05-07T11:22:44;2.28;;;2.17;;
8458;SDS011;4266;48.816;9.154;2023-05-07T11:25:10;2.80;;;2.60;;
8458;SDS011;4266;48.816;9.154;2023-05-07T11:27:37;2.70;;;2.50;;
8458;SDS011;4266;48.816;9.154;2023-05-07T11:30:01;4.35;;;2.62;;
8458;SDS011;4266;48.816;9.154;2023-05-07T11:32:28;2.80;;;2.60;;
8458;SDS011;4266;48.816;9.154;2023-05-07T11:34:54;3.40;;;2.92;;
8458;SDS011;4266;48.816;9.154;2023-05-07T11:37:20;2.92;;;2.50;;
8458;SDS011;4266;48.816;9.154;2023-05-07T11:39:45;2.62;;;2.42;;
8458;SDS011;4266;48.816;9.154;2023-05-07T11:44:49;4.53;;;2.75;;
8458;SDS011;4266;48.816;9.154;2023-05-07T11:47:17;3.05;;;2.67;;
8458;SDS011;4266;48.816;9.154;2023-05-07T11:49:42;3.22;;;2.90;;
8458;SDS011;4266;48.816;9.154;2023-05-07T11:52:08;8.68;;;2.95;;
8458;SDS011;4266;48.816;9.154;2023-05-07T11:54:35;3.78;;;2.83;;
8458;SDS011;4266;48.816;9.154;2023-05-07T11:57:00;5.18;;;3.00;;
8458;SDS011;4266;48.816;9.154;2023-05-07T11:59:26;3.05;;;2.85;;
8458;SDS011;4266;48.816;9.154;2023-05-07T12:01:52;3.33;;;3.03;;
8458;SDS011;4266;48.816;9.154;2023-05-07T12:04:19;3.90;;;2.85;;
8458;SDS011;4266;48.816;9.154;2023-05-07T12:06:44;2.87;;;2.62;;
8458;SDS011;4266;48.816;9.154;2023-05-07T12:09:10;4.57;;;2.83;;
8458;SDS011;4266;48.816;9.154;2023-05-07T12:11:36;5.65;;;2.92;;
8458;SDS011;4266;48.816;9.154;2023-05-07T12:14:01;7.12;;;2.90;;
8458;SDS011;4266;48.816;9.154;2023-05-07T12:16:27;5.72;;;3.37;;
8458;SDS011;4266;48.816;9.154;2023-05-07T12:18:53;3.35;;;3.10;;
8458;SDS011;4266;48.816;9.154;2023-05-07T12:21:18;3.17;;;2.97;;
8458;SDS011;4266;48.816;9.154;2023-05-07T12:23:44;4.60;;;3.37;;
8458;SDS011;4266;48.816;9.154;2023-05-07T12:26:10;4.68;;;3.28;;
8458;SDS011;4266;48.816;9.154;2023-05-07T12:28:36;4.95;;;3.30;;
8458;SDS011;4266;48.816;9.154;2023-05-07T12:31:01;3.83;;;3.45;;
8458;SDS011;4266;48.816;9.154;2023-05-07T12:33:27;3.28;;;3.05;;
8458;SDS011;4266;48.816;9.154;2023-05-07T12:35:53;4.80;;;3.05;;
8458;SDS011;4266;48.816;9.154;2023-05-07T12:38:18;4.32;;;2.80;;
8458;SDS011;4266;48.816;9.154;2023-05-07T12:40:46;3.03;;;2.75;;
8458;SDS011;4266;48.816;9.154;2023-05-07T12:43:15;3.60;;;3.03;;
8458;SDS011;4266;48.816;9.154;2023-05-07T12:45:57;4.15;;;2.62;;
8458;SDS011;4266;48.816;9.154;2023-05-07T12:48:26;8.68;;;3.22;;
8458;SDS011;4266;48.816;9.154;2023-05-07T12:50:53;3.10;;;2.80;;
8458;SDS011;4266;48.816;9.154;2023-05-07T12:53:20;3.70;;;2.40;;
8458;SDS011;4266;48.816;9.154;2023-05-07T12:55:45;7.28;;;3.25;;
8458;SDS011;4266;48.816;9.154;2023-05-07T12:58:17;6.97;;;3.30;;
8458;SDS011;4266;48.816;9.154;2023-05-07T13:00:47;5.18;;;2.62;;
8458;SDS011;4266;48.816;9.154;2023-05-07T13:03:11;3.80;;;3.42;;
8458;SDS011;4266;48.816;9.154;2023-05-07T13:05:36;5.25;;;3.00;;
8458;SDS011;4266;48.816;9.154;2023-05-07T13:08:03;5.12;;;3.45;;
8458;SDS011;4266;48.816;9.154;2023-05-07T13:10:28;3.50;;;3.20;;
8458;SDS011;4266;48.816;9.154;2023-05-07T13:12:54;3.87;;;3.33;;
8458;SDS011;4266;48.816;9.154;2023-05-07T13:15:21;4.87;;;2.83;;
8458;SDS011;4266;48.816;9.154;2023-05-07T13:17:46;5.00;;;3.40;;
8458;SDS011;4266;48.816;9.154;2023-05-07T13:20:12;5.43;;;3.63;;
8458;SDS011;4266;48.816;9.154;2023-05-07T13:22:38;7.17;;;3.50;;
8458;SDS011;4266;48.816;9.154;2023-05-07T13:25:03;4.50;;;3.53;;
8458;SDS011;4266;48.816;9.154;2023-05-07T13:27:30;7.13;;;3.50;;
8458;SDS011;4266;48.816;9.154;2023-05-07T13:29:55;7.43;;;3.90;;
8458;SDS011;4266;48.816;9.154;2023-05-07T13:32:21;5.13;;;3.57;;
8458;SDS011;4266;48.816;9.154;2023-05-07T13:34:47;4.63;;;3.10;;
8458;SDS011;4266;48.816;9.154;2023-05-07T13:37:13;3.33;;;3.03;;
8458;SDS011;4266;48.816;9.154;2023-05-07T13:39:39;4.63;;;3.20;;
8458;SDS011;4266;48.816;9.154;2023-05-07T13:42:05;6.70;;;2.83;;
8458;SDS011;4266;48.816;9.154;2023-05-07T13:44:30;3.60;;;3.10;;
8458;SDS011;4266;48.816;9.154;2023-05-07T13:46:56;3.93;;;3.00;;
8458;SDS011;4266;48.816;9.154;2023-05-07T13:49:22;3.40;;;3.10;;
8458;SDS011;4266;48.816;9.154;2023-05-07T13:51:47;4.80;;;3.07;;
8458;SDS011;4266;48.816;9.154;2023-05-07T13:54:13;3.00;;;2.10;;
8458;SDS011;4266;48.816;9.154;2023-05-07T13:56:39;2.20;;;2.10;;
8458;SDS011;4266;48.816;9.154;2023-05-07T13:59:04;2.63;;;2.43;;
8458;SDS011;4266;48.816;9.154;2023-05-07T14:01:30;2.30;;;2.20;;
8458;SDS011;4266;48.816;9.154;2023-05-07T14:03:56;3.03;;;2.00;;
8458;SDS011;4266;48.816;9.154;2023-05-07T14:06:21;2.83;;;2.30;;
8458;SDS011;4266;48.816;9.154;2023-05-07T14:08:47;2.70;;;2.50;;
8458;SDS011;4266;48.816;9.154;2023-05-07T14:11:12;3.40;;;2.20;;
8458;SDS011;4266;48.816;9.154;2023-05-07T14:13:38;3.57;;;2.40;;
8458;SDS011;4266;48.816;9.154;2023-05-07T14:16:04;2.30;;;2.10;;
8458;SDS011;4266;48.816;9.154;2023-05-07T14:18:33;3.50;;;2.30;;
8458;SDS011;4266;48.816;9.154;2023-05-07T14:20:59;4.73;;;2.67;;
8458;SDS011;4266;48.816;9.154;2023-05-07T14:23:25;2.73;;;2.53;;
8458;SDS011;4266;48.816;9.154;2023-05-07T14:25:50;3.00;;;2.60;;
8458;SDS011;4266;48.816;9.154;2023-05-07T14:28:16;3.17;;;2.73;;
8458;SDS011;4266;48.816;9.154;2023-05-07T14:30:42;4.17;;;3.00;;
8458;SDS011;4266;48.816;9.154;2023-05-07T14:33:08;3.60;;;3.10;;
8458;SDS011;4266;48.816;9.154;2023-05-07T14:35:34;3.10;;;2.90;;
8458;SDS011;4266;48.816;9.154;2023-05-07T14:38:00;4.13;;;3.00;;
8458;SDS011;4266;48.816;9.154;2023-05-07T14:40:26;4.30;;;3.30;;
8458;SDS011;4266;48.816;9.154;2023-05-07T14:42:52;3.63;;;3.30;;
8458;SDS011;4266;48.816;9.154;2023-05-07T14:45:18;4.30;;;3.00;;
8458;SDS011;4266;48.816;9.154;2023-05-07T14:47:43;3.77;;;2.87;;
8458;SDS011;4266;48.816;9.154;2023-05-07T14:50:09;4.33;;;2.90;;
8458;SDS011;4266;48.816;9.154;2023-05-07T14:52:35;3.07;;;2.80;;
8458;SDS011;4266;48.816;9.154;2023-05-07T14:55:01;5.13;;;2.70;;
8458;SDS011;4266;48.816;9.154;2023-05-07T14:57:27;4.17;;;2.80;;
8458;SDS011;4266;48.816;9.154;2023-05-07T14:59:53;4.43;;;2.50;;
8458;SDS011;4266;48.816;9.154;2023-05-07T15:02:19;3.27;;;2.40;;
8458;SDS011;4266;48.816;9.154;2023-05-07T15:04:45;3.00;;;2.60;;
8458;SDS011;4266;48.816;9.154;2023-05-07T15:07:11;3.30;;;3.00;;
8458;SDS011;4266;48.816;9.154;2023-05-07T15:09:36;4.20;;;2.50;;
8458;SDS011;4266;48.816;9.154;2023-05-07T15:12:02;5.17;;;3.17;;
8458;SDS011;4266;48.816;9.154;2023-05-07T15:14:29;4.23;;;2.93;;
8458;SDS011;4266;48.816;9.154;2023-05-07T15:16:55;5.33;;;4.87;;